Time;durP1;ratioP1;P1;durP2;ratioP2;P2;SDS_P1;SDS_P2;PMS_P1;PMS_P2;Temp;Humidity;BMP_temperature;BMP_pressure;BME280_temperature;BME280_humidity;BME280_pressure;Samples;Min_cycle;Max_cycle;Signal;HPM_P1;HPM_P2
2022/06/24 00:01:25;;;;;;;;;;;22.70;99.90;;;;;;5065084;28;19984;-69
2022/06/24 00:03:52;;;;;;;;;;;22.70;99.90;;;;;;5064834;28;19956;-69
2022/06/24 00:06:18;;;;;;;;;;;22.70;99.90;;;;;;5065000;28;19928;-69
2022/06/24 00:08:52;;;;;;;;;;;22.70;99.90;;;;;;5065261;28;19948;-69
2022/06/24 00:11:22;;;;;;;;;;;22.70;99.90;;;;;;5064996;28;19927;-68
2022/06/24 00:13:50;;;;;;;;;;;22.60;99.90;;;;;;5064692;28;19991;-68
2022/06/24 00:16:17;;;;;;;;;;;22.70;99.90;;;;;;5064837;28;20120;-68
2022/06/24 00:18:44;;;;;;;;;;;22.60;99.90;;;;;;5065131;28;19921;-68
2022/06/24 00:21:14;;;;;;;;;;;22.50;99.90;;;;;;5064791;28;19920;-68
2022/06/24 00:23:41;;;;;;;;;;;22.40;99.90;;;;;;5044661;28;20224;-68
2022/06/24 00:26:08;;;;;;;;;;;22.40;99.90;;;;;;5064091;28;19959;-68
2022/06/24 00:28:35;;;;;;;;;;;22.30;99.90;;;;;;5062643;28;19948;-68
2022/06/24 00:31:04;;;;;;;;;;;22.30;99.90;;;;;;5064559;28;19952;-68
2022/06/24 00:33:35;;;;;;;;;;;22.20;99.90;;;;;;5064400;28;20116;-68
2022/06/24 00:36:02;;;;;;;;;;;22.00;99.90;;;;;;5064677;28;20081;-68
2022/06/24 00:38:30;;;;;;;;;;;22.00;99.90;;;;;;5064362;28;20400;-68
2022/06/24 00:40:57;;;;;;;;;;;21.90;99.90;;;;;;5063884;28;19920;-68
2022/06/24 00:43:26;;;;;;;;;;;21.80;99.90;;;;;;5064013;28;19963;-68
2022/06/24 00:45:56;;;;;;;;;;;21.80;99.90;;;;;;5064457;28;19921;-68
2022/06/24 00:48:26;;;;;;;;;;;21.70;99.90;;;;;;5064463;28;19920;-68
2022/06/24 00:50:53;;;;;;;;;;;21.60;99.90;;;;;;5064548;28;19952;-68
2022/06/24 00:53:19;;;;;;;;;;;21.50;99.90;;;;;;5064143;28;19932;-68
2022/06/24 00:55:46;;;;;;;;;;;21.50;99.90;;;;;;5064194;28;19928;-69
2022/06/24 00:58:14;;;;;;;;;;;21.40;99.90;;;;;;5064412;28;20286;-68
2022/06/24 01:00:42;;;;;;;;;;;21.40;99.90;;;;;;5064299;28;20003;-68
2022/06/24 01:03:08;;;;;;;;;;;21.40;99.90;;;;;;5063845;28;20254;-68
2022/06/24 01:05:36;;;;;;;;;;;21.30;99.90;;;;;;5064118;28;19988;-68
2022/06/24 01:08:07;;;;;;;;;;;21.30;99.90;;;;;;5064260;28;19984;-68
2022/06/24 01:10:34;;;;;;;;;;;21.30;99.90;;;;;;5063584;28;19948;-68
2022/06/24 01:13:00;;;;;;;;;;;21.20;99.90;;;;;;5063332;28;19952;-68
2022/06/24 01:15:27;;;;;;;;;;;21.20;99.90;;;;;;5064157;28;19978;-68
2022/06/24 01:17:54;;;;;;;;;;;21.20;99.90;;;;;;5064007;28;19948;-68
2022/06/24 01:20:21;;;;;;;;;;;21.20;99.90;;;;;;5063875;28;19921;-68
2022/06/24 01:22:49;;;;;;;;;;;21.10;99.90;;;;;;5063209;28;19921;-68
2022/06/24 01:25:15;;;;;;;;;;;21.10;99.90;;;;;;5063504;28;19978;-68
2022/06/24 01:27:42;;;;;;;;;;;21.00;99.90;;;;;;5063760;28;19967;-68
2022/06/24 01:30:09;;;;;;;;;;;21.00;99.90;;;;;;5063630;28;19921;-68
2022/06/24 01:32:36;;;;;;;;;;;21.00;99.90;;;;;;5063168;28;20231;-68
2022/06/24 01:35:03;;;;;;;;;;;20.90;99.90;;;;;;5063549;28;20183;-68
2022/06/24 01:37:30;;;;;;;;;;;20.90;99.90;;;;;;5063684;28;19952;-68
2022/06/24 01:39:58;;;;;;;;;;;20.80;99.90;;;;;;5062860;28;19956;-68
2022/06/24 01:42:24;;;;;;;;;;;20.80;99.90;;;;;;5062811;28;19921;-69
2022/06/24 01:44:51;;;;;;;;;;;20.70;99.90;;;;;;5063685;28;19948;-68
2022/06/24 01:47:18;;;;;;;;;;;20.70;99.90;;;;;;5063429;28;19971;-68
2022/06/24 01:49:44;;;;;;;;;;;20.60;99.90;;;;;;5063433;28;20179;-69
2022/06/24 01:52:11;;;;;;;;;;;20.60;99.90;;;;;;5063014;28;20200;-69
2022/06/24 01:54:38;;;;;;;;;;;20.60;99.90;;;;;;5062803;28;19959;-69
2022/06/24 01:57:07;;;;;;;;;;;20.60;99.90;;;;;;5063322;28;19960;-68
2022/06/24 01:59:33;;;;;;;;;;;20.60;99.90;;;;;;5063161;28;20159;-68
2022/06/24 02:02:00;;;;;;;;;;;20.60;99.90;;;;;;5062762;28;19927;-68
2022/06/24 02:04:27;;;;;;;;;;;20.60;99.90;;;;;;5062993;28;20045;-68
2022/06/24 02:06:53;;;;;;;;;;;20.50;99.90;;;;;;5063019;28;20258;-68
2022/06/24 02:09:20;;;;;;;;;;;20.50;99.90;;;;;;5063032;28;19960;-69
2022/06/24 02:14:32;;;;;;;;;;;20.50;99.90;;;;;;5084423;23;19926;-72
2022/06/24 02:16:59;;;;;;;;;;;20.50;99.90;;;;;;5082865;28;19921;-72
2022/06/24 02:19:25;;;;;;;;;;;20.40;99.90;;;;;;5083192;28;20218;-71
2022/06/24 02:21:52;;;;;;;;;;;20.40;99.90;;;;;;5082633;28;19934;-72
2022/06/24 02:24:19;;;;;;;;;;;20.50;99.90;;;;;;5082899;28;20200;-72
2022/06/24 02:26:46;;;;;;;;;;;20.40;99.90;;;;;;5077062;28;19996;-71
2022/06/24 02:29:13;;;;;;;;;;;20.40;99.90;;;;;;5082823;28;20110;-72
2022/06/24 02:31:41;;;;;;;;;;;20.40;99.90;;;;;;5062779;28;20068;-72
2022/06/24 02:34:07;;;;;;;;;;;20.40;99.90;;;;;;5062492;28;19984;-71
2022/06/24 02:36:34;;;;;;;;;;;20.40;99.90;;;;;;5063553;28;20416;-72
2022/06/24 02:39:01;;;;;;;;;;;20.40;99.90;;;;;;5063393;28;19920;-72
2022/06/24 02:41:28;;;;;;;;;;;20.40;99.90;;;;;;5068115;28;19927;-72
2022/06/24 02:43:55;;;;;;;;;;;20.40;99.90;;;;;;5063097;28;19921;-72
2022/06/24 02:46:22;;;;;;;;;;;20.30;99.90;;;;;;5062831;28;19921;-72
2022/06/24 02:48:50;;;;;;;;;;;20.40;99.90;;;;;;5080534;28;19943;-72
2022/06/24 02:51:16;;;;;;;;;;;20.40;99.90;;;;;;5065839;28;19920;-71
2022/06/24 02:53:44;;;;;;;;;;;20.40;99.90;;;;;;5065736;28;20171;-71
2022/06/24 02:56:12;;;;;;;;;;;20.30;99.90;;;;;;5067727;28;20123;-71
2022/06/24 02:58:38;;;;;;;;;;;20.40;99.90;;;;;;5086529;28;19987;-71
2022/06/24 03:01:05;;;;;;;;;;;20.40;99.90;;;;;;5071369;28;20246;-71
2022/06/24 03:03:32;;;;;;;;;;;20.40;99.90;;;;;;5066272;28;19952;-71
2022/06/24 03:06:00;;;;;;;;;;;20.40;99.90;;;;;;5066656;28;19935;-73
2022/06/24 03:08:27;;;;;;;;;;;20.40;99.90;;;;;;5066380;28;20204;-73
2022/06/24 03:10:54;;;;;;;;;;;20.40;99.90;;;;;;5070833;28;19921;-71
2022/06/24 03:13:20;;;;;;;;;;;20.40;99.90;;;;;;5085990;28;20003;-70
2022/06/24 03:15:48;;;;;;;;;;;20.40;99.90;;;;;;5085659;28;19978;-71
2022/06/24 03:18:15;;;;;;;;;;;20.30;99.90;;;;;;5086418;28;20123;-71
2022/06/24 03:20:42;;;;;;;;;;;20.30;99.90;;;;;;5074907;28;20164;-71
2022/06/24 03:23:10;;;;;;;;;;;20.10;99.90;;;;;;5066000;28;20023;-74
2022/06/24 03:25:37;;;;;;;;;;;20.10;99.90;;;;;;5069830;28;20310;-71
2022/06/24 03:28:04;;;;;;;;;;;20.00;99.90;;;;;;5086155;28;20246;-72
2022/06/24 03:30:31;;;;;;;;;;;20.00;99.90;;;;;;5075928;28;19921;-73
2022/06/24 03:32:57;;;;;;;;;;;20.00;99.90;;;;;;5074297;28;20176;-73
2022/06/24 03:35:24;;;;;;;;;;;20.00;99.90;;;;;;5065590;28;20173;-73
2022/06/24 03:37:51;;;;;;;;;;;20.00;99.90;;;;;;5083472;28;19920;-72
2022/06/24 03:40:19;;;;;;;;;;;20.00;99.90;;;;;;5074984;28;19920;-72
2022/06/24 03:42:45;;;;;;;;;;;20.00;99.90;;;;;;5072081;28;20228;-73
2022/06/24 03:45:12;;;;;;;;;;;20.00;99.90;;;;;;5065676;28;19995;-73
2022/06/24 03:47:39;;;;;;;;;;;20.00;99.90;;;;;;5065627;28;19921;-73
2022/06/24 03:50:06;;;;;;;;;;;20.00;99.90;;;;;;5065711;28;19927;-73
2022/06/24 03:52:32;;;;;;;;;;;19.90;99.90;;;;;;5065278;28;19948;-73
2022/06/24 03:54:59;;;;;;;;;;;19.90;99.90;;;;;;5065110;28;19927;-71
2022/06/24 03:57:27;;;;;;;;;;;19.90;99.90;;;;;;5065461;28;20120;-72
2022/06/24 03:59:54;;;;;;;;;;;19.80;99.90;;;;;;5074687;28;19951;-72
2022/06/24 04:02:21;;;;;;;;;;;19.80;99.90;;;;;;5084930;28;19920;-72
2022/06/24 04:04:48;;;;;;;;;;;19.80;99.90;;;;;;5085034;28;19927;-72
2022/06/24 04:07:14;;;;;;;;;;;19.70;99.90;;;;;;5069473;28;19956;-72
2022/06/24 04:09:41;;;;;;;;;;;19.70;99.90;;;;;;5081763;28;19958;-72
2022/06/24 04:12:08;;;;;;;;;;;19.70;99.90;;;;;;5085016;28;19921;-71
2022/06/24 04:17:20;;;;;;;;;;;19.70;99.90;;;;;;5064843;28;19931;-72
2022/06/24 04:19:47;;;;;;;;;;;19.70;99.90;;;;;;5064840;28;19985;-71
2022/06/24 04:22:13;;;;;;;;;;;19.70;99.90;;;;;;5065734;28;19924;-72
2022/06/24 04:24:40;;;;;;;;;;;19.60;99.90;;;;;;5078327;28;19952;-69
2022/06/24 04:27:08;;;;;;;;;;;19.60;99.90;;;;;;5068503;28;19928;-69
2022/06/24 04:29:36;;;;;;;;;;;19.60;99.90;;;;;;5064913;28;19948;-71
2022/06/24 04:32:03;;;;;;;;;;;19.50;99.90;;;;;;5064654;28;19948;-71
2022/06/24 04:34:29;;;;;;;;;;;19.50;99.90;;;;;;5063829;28;19986;-71
2022/06/24 04:36:56;;;;;;;;;;;19.50;99.90;;;;;;5074651;28;19952;-71
2022/06/24 04:39:25;;;;;;;;;;;19.40;99.90;;;;;;5084627;28;19955;-71
2022/06/24 04:41:51;;;;;;;;;;;19.50;99.90;;;;;;5085225;28;19991;-71
2022/06/24 04:44:18;;;;;;;;;;;19.50;99.90;;;;;;5076112;28;19948;-71
2022/06/24 04:46:58;;;;;;;;;;;19.40;99.90;;;;;;5064172;28;19920;-71
2022/06/24 04:49:28;;;;;;;;;;;19.40;99.90;;;;;;5064229;28;20039;-71
2022/06/24 04:51:55;;;;;;;;;;;19.50;99.90;;;;;;5064739;28;20212;-71
2022/06/24 04:54:22;;;;;;;;;;;19.40;99.90;;;;;;5065046;28;19921;-71
2022/06/24 04:56:49;;;;;;;;;;;19.40;99.90;;;;;;5050806;28;19921;-71
2022/06/24 04:59:16;;;;;;;;;;;19.30;99.90;;;;;;5057770;28;19921;-71
2022/06/24 05:01:42;;;;;;;;;;;19.30;99.90;;;;;;5084750;28;19928;-72
2022/06/24 05:04:10;;;;;;;;;;;19.20;99.90;;;;;;5073378;28;20164;-71
2022/06/24 05:06:37;;;;;;;;;;;19.20;99.90;;;;;;5064542;28;19980;-70
2022/06/24 05:09:03;;;;;;;;;;;19.30;99.90;;;;;;5052975;28;19955;-72
2022/06/24 05:11:31;;;;;;;;;;;19.30;99.90;;;;;;5044741;28;19921;-70
2022/06/24 05:13:58;;;;;;;;;;;19.30;99.90;;;;;;5044087;28;19937;-70
2022/06/24 05:16:25;;;;;;;;;;;19.40;99.90;;;;;;5052485;28;19983;-71
2022/06/24 05:18:51;;;;;;;;;;;19.50;99.90;;;;;;5064249;28;20503;-71
2022/06/24 05:21:19;;;;;;;;;;;19.50;99.90;;;;;;5059409;28;19921;-71
2022/06/24 05:23:46;;;;;;;;;;;19.60;99.90;;;;;;5044042;28;20255;-69
2022/06/24 05:26:13;;;;;;;;;;;19.70;99.90;;;;;;5044111;28;20209;-69
2022/06/24 05:28:39;;;;;;;;;;;19.70;99.90;;;;;;5044168;28;19953;-70
2022/06/24 05:31:07;;;;;;;;;;;19.80;99.90;;;;;;5043186;28;20267;-70
2022/06/24 05:33:34;;;;;;;;;;;19.90;99.90;;;;;;5058110;28;20261;-70
2022/06/24 05:36:01;;;;;;;;;;;20.00;99.90;;;;;;5083654;28;19924;-71
2022/06/24 05:38:29;;;;;;;;;;;20.20;99.90;;;;;;5073966;28;19928;-71
2022/06/24 05:40:56;;;;;;;;;;;20.30;99.90;;;;;;5076024;28;19924;-71
2022/06/24 05:43:22;;;;;;;;;;;20.50;99.90;;;;;;5083180;28;19920;-70
2022/06/24 05:45:49;;;;;;;;;;;20.70;99.90;;;;;;5071313;28;20231;-71
2022/06/24 05:48:16;;;;;;;;;;;20.70;99.90;;;;;;5052231;28;19921;-71
2022/06/24 05:50:43;;;;;;;;;;;20.80;99.90;;;;;;5052455;28;20157;-71
2022/06/24 05:55:58;;;;;;;;;;;20.80;99.90;;;;;;5079799;28;19991;-71
2022/06/24 05:58:25;;;;;;;;;;;20.80;99.90;;;;;;5076164;28;19928;-71
2022/06/24 06:00:52;;;;;;;;;;;20.80;99.90;;;;;;5064781;28;19957;-71
2022/06/24 06:03:18;;;;;;;;;;;20.90;99.90;;;;;;5062511;28;19921;-71
2022/06/24 06:05:45;;;;;;;;;;;20.90;99.90;;;;;;5083168;28;19920;-71
2022/06/24 06:08:12;;;;;;;;;;;20.90;99.90;;;;;;5082009;28;19963;-71
2022/06/24 06:10:38;;;;;;;;;;;20.90;99.90;;;;;;5062865;28;19951;-71
2022/06/24 06:13:06;;;;;;;;;;;20.80;99.90;;;;;;5062892;28;19956;-71
2022/06/24 06:15:33;;;;;;;;;;;20.80;99.90;;;;;;5063682;28;19921;-71
2022/06/24 06:18:00;;;;;;;;;;;20.80;99.90;;;;;;5063079;28;19960;-71
2022/06/24 06:20:27;;;;;;;;;;;20.70;99.90;;;;;;5053153;28;19980;-71
2022/06/24 06:22:53;;;;;;;;;;;20.70;99.90;;;;;;5057545;28;19925;-71
2022/06/24 06:25:22;;;;;;;;;;;20.70;99.90;;;;;;5082584;28;19959;-71
2022/06/24 06:27:49;;;;;;;;;;;20.80;99.90;;;;;;5086409;28;19924;-71
2022/06/24 06:30:17;;;;;;;;;;;20.80;99.90;;;;;;5086032;28;20123;-72
2022/06/24 06:32:44;;;;;;;;;;;20.90;99.90;;;;;;5081532;28;19921;-71
2022/06/24 06:35:10;;;;;;;;;;;20.90;99.90;;;;;;5067119;28;20093;-70
2022/06/24 06:37:37;;;;;;;;;;;20.90;99.90;;;;;;5074165;28;19946;-71
2022/06/24 06:40:04;;;;;;;;;;;21.00;99.90;;;;;;5085266;28;19979;-72
2022/06/24 06:42:30;;;;;;;;;;;20.90;99.90;;;;;;5086886;28;19943;-70
2022/06/24 06:44:57;;;;;;;;;;;21.00;99.90;;;;;;5080379;28;20156;-71
2022/06/24 06:47:25;;;;;;;;;;;21.00;99.90;;;;;;5066559;28;19928;-71
2022/06/24 06:49:52;;;;;;;;;;;21.00;99.90;;;;;;5072529;28;19926;-71
2022/06/24 06:52:19;;;;;;;;;;;21.10;99.90;;;;;;5086611;28;19920;-71
2022/06/24 06:54:45;;;;;;;;;;;21.10;99.90;;;;;;5077013;28;19943;-71
2022/06/24 06:57:12;;;;;;;;;;;21.20;99.90;;;;;;5086849;28;19927;-72
2022/06/24 06:59:39;;;;;;;;;;;21.20;99.90;;;;;;5071259;28;19968;-72
2022/06/24 07:02:05;;;;;;;;;;;21.20;99.90;;;;;;5066350;28;19956;-71
2022/06/24 07:04:33;;;;;;;;;;;21.30;99.90;;;;;;5074171;28;19925;-72
2022/06/24 07:07:00;;;;;;;;;;;21.40;99.90;;;;;;5066453;28;20210;-71
2022/06/24 07:09:27;;;;;;;;;;;21.40;99.90;;;;;;5072455;28;20175;-71
2022/06/24 07:11:53;;;;;;;;;;;21.50;99.90;;;;;;5068735;28;19963;-70
2022/06/24 07:14:20;;;;;;;;;;;21.60;99.90;;;;;;5066032;28;19943;-72
2022/06/24 07:16:47;;;;;;;;;;;21.60;99.90;;;;;;5065985;28;19921;-71
2022/06/24 07:19:13;;;;;;;;;;;21.60;99.90;;;;;;5066086;28;19925;-71
2022/06/24 07:21:41;;;;;;;;;;;21.70;99.90;;;;;;5058343;28;19959;-72
2022/06/24 07:24:08;;;;;;;;;;;21.70;99.90;;;;;;5074462;28;19920;-71
2022/06/24 07:26:35;;;;;;;;;;;21.80;99.90;;;;;;5086385;28;19952;-71
2022/06/24 07:29:01;;;;;;;;;;;21.70;99.90;;;;;;5077660;28;19947;-73
2022/06/24 07:31:28;;;;;;;;;;;21.70;99.90;;;;;;5055192;28;19928;-71
2022/06/24 07:33:55;;;;;;;;;;;21.70;99.90;;;;;;5058098;28;20205;-71
2022/06/24 07:36:21;;;;;;;;;;;21.80;99.90;;;;;;5065605;28;20232;-71
2022/06/24 07:38:49;;;;;;;;;;;21.80;99.90;;;;;;5053952;28;19975;-70
2022/06/24 07:41:16;;;;;;;;;;;21.80;99.90;;;;;;5045712;28;19980;-71
2022/06/24 07:43:43;;;;;;;;;;;21.80;99.90;;;;;;5058035;28;19944;-71
2022/06/24 07:46:11;;;;;;;;;;;21.80;99.90;;;;;;5063420;28;19956;-72
2022/06/24 07:48:37;;;;;;;;;;;21.80;99.90;;;;;;5056636;28;20243;-71
2022/06/24 07:51:12;;;;;;;;;;;21.80;99.90;;;;;;5065706;28;19966;-72
2022/06/24 07:53:39;;;;;;;;;;;21.80;99.90;;;;;;5071701;28;19955;-71
2022/06/24 07:58:52;;;;;;;;;;;21.80;99.90;;;;;;5070197;28;19963;-71
2022/06/24 08:01:18;;;;;;;;;;;21.90;99.90;;;;;;5065287;28;19956;-71
2022/06/24 08:03:45;;;;;;;;;;;21.90;99.90;;;;;;5064613;28;20200;-71
2022/06/24 08:06:12;;;;;;;;;;;21.90;99.90;;;;;;5065512;28;20124;-72
2022/06/24 08:08:39;;;;;;;;;;;21.90;99.90;;;;;;5065288;28;19959;-72
2022/06/24 08:11:05;;;;;;;;;;;21.90;99.90;;;;;;5065268;28;19963;-70
2022/06/24 08:13:33;;;;;;;;;;;22.00;99.90;;;;;;5064584;28;20118;-71
2022/06/24 08:16:00;;;;;;;;;;;22.10;99.90;;;;;;5039902;23;19921;-89
2022/06/24 08:18:28;;;;;;;;;;;22.10;99.90;;;;;;5038621;28;19971;-88
2022/06/24 08:20:54;;;;;;;;;;;22.10;99.90;;;;;;5027670;28;19936;-88
2022/06/24 08:23:21;;;;;;;;;;;22.20;99.90;;;;;;5026965;28;20115;-90
2022/06/24 08:25:48;;;;;;;;;;;22.30;99.90;;;;;;5024177;28;19922;-90
2022/06/24 08:28:15;;;;;;;;;;;22.40;99.90;;;;;;5039998;22;19925;-69
2022/06/24 08:30:43;;;;;;;;;;;22.50;99.90;;;;;;5043244;28;20105;-70
2022/06/24 08:33:09;;;;;;;;;;;22.50;99.90;;;;;;5044471;28;20267;-69
2022/06/24 08:35:36;;;;;;;;;;;22.50;99.90;;;;;;5044326;28;19949;-69
2022/06/24 08:38:03;;;;;;;;;;;22.40;99.90;;;;;;5042547;28;19921;-69
2022/06/24 08:40:30;;;;;;;;;;;22.50;99.90;;;;;;5043462;28;19952;-69
2022/06/24 08:42:57;;;;;;;;;;;22.60;99.90;;;;;;5042954;28;19921;-69
2022/06/24 08:45:25;;;;;;;;;;;22.70;99.90;;;;;;5044337;28;20204;-70
2022/06/24 08:47:54;;;;;;;;;;;22.80;99.90;;;;;;5043529;28;19928;-70
2022/06/24 08:50:21;;;;;;;;;;;22.80;99.90;;;;;;5043371;28;19921;-69
2022/06/24 08:52:49;;;;;;;;;;;22.80;99.90;;;;;;5044033;28;19921;-69
2022/06/24 08:55:16;;;;;;;;;;;22.70;99.90;;;;;;5043868;28;20220;-69
2022/06/24 08:57:43;;;;;;;;;;;22.70;99.90;;;;;;5043374;28;19960;-70
2022/06/24 09:00:10;;;;;;;;;;;22.70;99.90;;;;;;5044354;28;19921;-69
2022/06/24 09:02:37;;;;;;;;;;;22.60;99.90;;;;;;5043539;28;19921;-69
2022/06/24 09:05:10;;;;;;;;;;;22.60;99.90;;;;;;5044087;28;19944;-69
2022/06/24 09:07:37;;;;;;;;;;;22.60;99.90;;;;;;5043997;28;19921;-69
2022/06/24 09:10:05;;;;;;;;;;;22.70;99.90;;;;;;5044296;28;19980;-69
2022/06/24 09:12:37;;;;;;;;;;;22.70;99.90;;;;;;5044180;28;20010;-69
2022/06/24 09:15:04;;;;;;;;;;;22.70;99.90;;;;;;5044007;28;19952;-69
2022/06/24 09:17:32;;;;;;;;;;;22.70;99.90;;;;;;5044415;28;19921;-69
2022/06/24 09:20:06;;;;;;;;;;;22.70;99.90;;;;;;5043282;28;20347;-69
2022/06/24 09:22:34;;;;;;;;;;;22.70;99.90;;;;;;5040124;28;19928;-69
2022/06/24 09:25:01;;;;;;;;;;;22.80;99.90;;;;;;5043865;28;19988;-69
2022/06/24 09:27:28;;;;;;;;;;;22.90;99.90;;;;;;5043632;28;20148;-69
2022/06/24 09:29:55;;;;;;;;;;;23.00;99.90;;;;;;5043703;28;19963;-69
2022/06/24 09:32:22;;;;;;;;;;;23.10;99.90;;;;;;5038263;28;19929;-69
2022/06/24 09:34:58;;;;;;;;;;;23.10;99.90;;;;;;5034457;28;19955;-69
2022/06/24 09:37:35;;;;;;;;;;;23.20;99.90;;;;;;5043109;28;19960;-69
2022/06/24 09:40:14;;;;;;;;;;;23.40;99.90;;;;;;5034932;28;19985;-69
2022/06/24 09:42:41;;;;;;;;;;;23.50;99.90;;;;;;5025732;28;19989;-69
2022/06/24 09:45:08;;;;;;;;;;;23.60;99.90;;;;;;5042593;28;19988;-69
2022/06/24 09:47:38;;;;;;;;;;;23.80;99.90;;;;;;5043161;28;19956;-69
2022/06/24 09:50:05;;;;;;;;;;;23.90;99.90;;;;;;5028298;28;19992;-69
2022/06/24 09:52:32;;;;;;;;;;;24.00;99.90;;;;;;5041141;28;19997;-69
2022/06/24 09:55:00;;;;;;;;;;;24.10;99.90;;;;;;5042226;28;19925;-69
2022/06/24 09:57:28;;;;;;;;;;;24.30;99.90;;;;;;5043182;28;20155;-69
2022/06/24 10:02:39;;;;;;;;;;;24.40;99.90;;;;;;5042737;28;19939;-69
2022/06/24 10:05:07;;;;;;;;;;;24.30;99.90;;;;;;5042318;28;19971;-68
2022/06/24 10:07:35;;;;;;;;;;;24.30;99.90;;;;;;5040869;28;19948;-69
2022/06/24 10:10:04;;;;;;;;;;;24.40;99.90;;;;;;5042464;28;19921;-68
2022/06/24 10:12:32;;;;;;;;;;;24.40;99.90;;;;;;5046418;28;19951;-68
2022/06/24 10:14:59;;;;;;;;;;;24.40;99.90;;;;;;5032517;28;20246;-69
2022/06/24 10:17:26;;;;;;;;;;;24.50;99.90;;;;;;5033082;28;19925;-69
2022/06/24 10:19:54;;;;;;;;;;;24.70;99.90;;;;;;5033164;28;19964;-70
2022/06/24 10:22:36;;;;;;;;;;;24.70;99.90;;;;;;5027196;28;20008;-69
2022/06/24 10:25:07;;;;;;;;;;;24.80;99.90;;;;;;5034687;28;20611;-69
2022/06/24 10:27:52;;;;;;;;;;;24.90;99.90;;;;;;5037440;28;19968;-69
2022/06/24 10:30:35;;;;;;;;;;;25.00;99.90;;;;;;5041061;28;19948;-69
2022/06/24 10:33:14;;;;;;;;;;;25.00;99.90;;;;;;5041459;28;20263;-69
2022/06/24 10:35:57;;;;;;;;;;;24.90;99.90;;;;;;5038268;28;20325;-68
2022/06/24 10:38:24;;;;;;;;;;;24.90;99.90;;;;;;5042613;28;19959;-69
2022/06/24 10:40:52;;;;;;;;;;;24.90;99.90;;;;;;5041410;28;19929;-69
2022/06/24 10:43:35;;;;;;;;;;;24.90;99.90;;;;;;5039300;28;19928;-69
2022/06/24 10:46:20;;;;;;;;;;;25.10;99.90;;;;;;5037656;28;19925;-69
2022/06/24 10:49:02;;;;;;;;;;;25.20;99.90;;;;;;5038783;28;19980;-69
2022/06/24 10:51:31;;;;;;;;;;;25.20;99.90;;;;;;5041769;28;20200;-69
2022/06/24 10:54:14;;;;;;;;;;;25.20;99.90;;;;;;5038265;28;19968;-69
2022/06/24 10:56:44;;;;;;;;;;;25.30;99.90;;;;;;5040994;28;19921;-69
2022/06/24 10:59:12;;;;;;;;;;;25.50;99.90;;;;;;5040591;28;19921;-67
2022/06/24 11:01:43;;;;;;;;;;;25.80;99.90;;;;;;5034740;28;19968;-67
2022/06/24 11:04:12;;;;;;;;;;;26.10;99.90;;;;;;5039804;28;19921;-67
2022/06/24 11:06:39;;;;;;;;;;;26.40;99.90;;;;;;5039885;28;19921;-68
2022/06/24 11:09:06;;;;;;;;;;;26.60;99.90;;;;;;5041167;28;19960;-68
2022/06/24 11:11:33;;;;;;;;;;;26.80;99.90;;;;;;5040678;28;19921;-68
2022/06/24 11:14:21;;;;;;;;;;;27.10;99.90;;;;;;5042625;28;19976;-68
2022/06/24 11:16:48;;;;;;;;;;;27.20;99.90;;;;;;5036412;28;19921;-67
2022/06/24 11:19:15;;;;;;;;;;;27.10;99.90;;;;;;5046065;28;19921;-69
2022/06/24 11:21:46;;;;;;;;;;;27.00;99.90;;;;;;5045163;28;19944;-67
2022/06/24 11:24:13;;;;;;;;;;;26.80;99.90;;;;;;5045471;28;20895;-68
2022/06/24 11:26:40;;;;;;;;;;;26.80;99.90;;;;;;5042005;28;19928;-67
2022/06/24 11:29:08;;;;;;;;;;;27.00;99.90;;;;;;5045838;28;19929;-67
2022/06/24 11:31:36;;;;;;;;;;;27.30;99.90;;;;;;5026125;28;20272;-67
2022/06/24 11:34:10;;;;;;;;;;;27.60;99.90;;;;;;5027145;28;19928;-67
2022/06/24 11:36:38;;;;;;;;;;;27.60;99.90;;;;;;5045831;28;20151;-66
2022/06/24 11:39:05;;;;;;;;;;;27.50;99.90;;;;;;5045978;28;20124;-66
2022/06/24 11:41:33;;;;;;;;;;;27.50;99.90;;;;;;5045914;28;19956;-66
2022/06/24 11:43:59;;;;;;;;;;;27.50;99.90;;;;;;5045753;28;20116;-66
2022/06/24 11:46:27;;;;;;;;;;;27.20;99.90;;;;;;5045394;28;19928;-66
2022/06/24 11:49:03;;;;;;;;;;;27.00;99.90;;;;;;5045751;28;19921;-66
2022/06/24 11:51:30;;;;;;;;;;;26.60;99.90;;;;;;5045945;28;19979;-66
2022/06/24 11:53:57;;;;;;;;;;;26.50;99.90;;;;;;5044999;28;19944;-66
2022/06/24 11:56:24;;;;;;;;;;;26.40;99.90;;;;;;5045192;28;20105;-66
2022/06/24 11:58:51;;;;;;;;;;;26.30;99.90;;;;;;5042760;28;19925;-66
2022/06/24 12:01:17;;;;;;;;;;;26.40;99.90;;;;;;5045182;28;19928;-66
2022/06/24 12:03:46;;;;;;;;;;;26.80;99.90;;;;;;5045225;28;20229;-66
2022/06/24 12:06:13;;;;;;;;;;;27.00;99.90;;;;;;5045631;28;19921;-66
2022/06/24 12:08:40;;;;;;;;;;;27.10;99.90;;;;;;5044351;28;19988;-65
2022/06/24 12:11:13;;;;;;;;;;;27.00;99.90;;;;;;5041571;28;19959;-66
2022/06/24 12:13:40;;;;;;;;;;;27.00;99.90;;;;;;5042001;28;19979;-65
2022/06/24 12:16:07;;;;;;;;;;;26.90;99.90;;;;;;5040306;28;20007;-65
2022/06/24 12:18:34;;;;;;;;;;;26.90;99.90;;;;;;5044727;28;19921;-66
2022/06/24 12:21:03;;;;;;;;;;;26.80;99.90;;;;;;5045086;28;19921;-66
2022/06/24 12:23:34;;;;;;;;;;;26.70;99.90;;;;;;5044721;28;19921;-65
2022/06/24 12:26:05;;;;;;;;;;;26.60;99.90;;;;;;5043542;28;19959;-66
2022/06/24 12:28:32;;;;;;;;;;;26.40;99.90;;;;;;5045154;28;19963;-67
2022/06/24 12:30:59;;;;;;;;;;;26.30;99.90;;;;;;5045227;28;19984;-66
2022/06/24 12:33:27;;;;;;;;;;;26.30;99.90;;;;;;5044419;28;20213;-66
2022/06/24 12:36:04;;;;;;;;;;;26.30;99.90;;;;;;5038342;28;19944;-66
2022/06/24 12:38:31;;;;;;;;;;;26.20;99.90;;;;;;5042673;28;19921;-66
2022/06/24 12:41:06;;;;;;;;;;;26.10;99.90;;;;;;5043354;28;19928;-68
2022/06/24 12:43:32;;;;;;;;;;;26.00;99.90;;;;;;5044038;28;20154;-68
2022/06/24 12:45:59;;;;;;;;;;;25.90;99.90;;;;;;5041588;28;20212;-68
2022/06/24 12:51:12;;;;;;;;;;;25.90;99.90;;;;;;5041358;28;19955;-68
2022/06/24 12:53:38;;;;;;;;;;;25.80;99.90;;;;;;5039313;28;19984;-68
2022/06/24 12:56:05;;;;;;;;;;;25.70;99.90;;;;;;5040519;28;19933;-68
2022/06/24 12:58:32;;;;;;;;;;;25.70;99.90;;;;;;5041393;28;19967;-69
2022/06/24 13:00:59;;;;;;;;;;;25.70;99.90;;;;;;5034979;28;19921;-66
2022/06/24 13:03:26;;;;;;;;;;;25.70;99.90;;;;;;5037922;28;19928;-66
2022/06/24 13:05:52;;;;;;;;;;;25.70;99.90;;;;;;5042529;28;19929;-66
2022/06/24 13:08:22;;;;;;;;;;;25.70;99.90;;;;;;5039928;28;19959;-66
2022/06/24 13:10:49;;;;;;;;;;;25.60;99.90;;;;;;5034299;28;20110;-66
2022/06/24 13:13:16;;;;;;;;;;;25.40;99.90;;;;;;5043621;28;19980;-66
2022/06/24 13:15:42;;;;;;;;;;;25.30;99.90;;;;;;5043236;28;20185;-66
2022/06/24 13:18:09;;;;;;;;;;;25.20;99.90;;;;;;5042952;28;20128;-66
2022/06/24 13:20:36;;;;;;;;;;;25.00;99.90;;;;;;5043772;28;20120;-66
2022/06/24 13:23:02;;;;;;;;;;;24.90;99.90;;;;;;5031951;28;20180;-66
2022/06/24 13:25:30;;;;;;;;;;;24.80;99.90;;;;;;5041205;28;19952;-68
2022/06/24 13:27:59;;;;;;;;;;;24.80;99.90;;;;;;5043014;28;19921;-67
2022/06/24 13:30:26;;;;;;;;;;;24.70;99.90;;;;;;5040690;28;19921;-65
2022/06/24 13:32:53;;;;;;;;;;;24.70;99.90;;;;;;5043022;28;20229;-66
2022/06/24 13:35:19;;;;;;;;;;;24.70;99.90;;;;;;5039499;28;19983;-65
2022/06/24 13:37:46;;;;;;;;;;;24.70;99.90;;;;;;5042685;28;19935;-67
2022/06/24 13:40:13;;;;;;;;;;;24.70;99.90;;;;;;5041929;28;19921;-66
2022/06/24 13:42:41;;;;;;;;;;;24.70;99.90;;;;;;5039969;28;20016;-66
2022/06/24 13:45:08;;;;;;;;;;;24.70;99.90;;;;;;5031366;28;19948;-66
2022/06/24 13:47:35;;;;;;;;;;;24.70;99.90;;;;;;5037290;28;19968;-65
2022/06/24 13:50:01;;;;;;;;;;;24.70;99.90;;;;;;5042662;28;20075;-66
2022/06/24 13:52:29;;;;;;;;;;;24.80;99.90;;;;;;5042627;28;20076;-66
2022/06/24 13:54:55;;;;;;;;;;;24.80;99.90;;;;;;5040975;28;19949;-65
2022/06/24 13:57:22;;;;;;;;;;;24.70;99.90;;;;;;5030126;28;19952;-67
2022/06/24 13:59:50;;;;;;;;;;;24.60;99.90;;;;;;5042346;28;19968;-66
2022/06/24 14:02:18;;;;;;;;;;;24.50;99.90;;;;;;5046106;28;19975;-66
2022/06/24 14:04:44;;;;;;;;;;;24.50;99.90;;;;;;5041952;28;20007;-66
2022/06/24 14:07:11;;;;;;;;;;;24.40;99.90;;;;;;5043149;28;19925;-66
2022/06/24 14:09:38;;;;;;;;;;;24.30;99.90;;;;;;5040194;28;19993;-68
2022/06/24 14:12:05;;;;;;;;;;;24.30;99.90;;;;;;5041320;28;19949;-66
2022/06/24 14:14:32;;;;;;;;;;;24.40;99.90;;;;;;5022091;28;19928;-65
2022/06/24 14:17:00;;;;;;;;;;;24.50;99.90;;;;;;5039902;28;19948;-66
2022/06/24 14:19:27;;;;;;;;;;;24.60;99.90;;;;;;5042856;28;19956;-66
2022/06/24 14:21:53;;;;;;;;;;;24.60;99.90;;;;;;5042640;28;19965;-65
2022/06/24 14:24:35;;;;;;;;;;;24.50;99.90;;;;;;5042707;28;19928;-66
2022/06/24 14:27:02;;;;;;;;;;;24.40;99.90;;;;;;5043345;28;19949;-65
2022/06/24 14:29:29;;;;;;;;;;;24.30;99.90;;;;;;5043183;28;19921;-66
2022/06/24 14:31:55;;;;;;;;;;;24.10;99.90;;;;;;5043079;28;19921;-66
2022/06/24 14:34:23;;;;;;;;;;;23.90;99.90;;;;;;5042638;28;19921;-66
2022/06/24 14:36:50;;;;;;;;;;;23.70;99.90;;;;;;5043143;28;19921;-66